Long Island City, NY (11105)

4:40 PM EST on December 22, 2014 (GMT -0500)
South Bronx | Change Station
CLOSE
Current Station
Personal Weather Station
Location: New York, NY
Elevation: 36 ft
Nearby Weather Stations

Elev 36 ft 40.81 °N, 73.91 °W | Updated 30 minutes ago

Light Drizzle
Light Drizzle Mist
43.1 °F
Feels Like 43 °F
N
0.0
Wind Variable Wind from NNW
Gusts 4.0 mph

Today
High -- | Low -- °F
--% Chance of Precip.
Yesterday
High -- | Low -- °F
Precip. -- in
7:16 AM 4:31 PM
New Moon, 1% visible
Pressure 30.24 in
Visibility 5.0 miles
Clouds Few 900 ft
Overcast 1600 ft
Windchill 43 °F
Dew Point 41 °F
Humidity 91%
Rainfall -999.00 in
Snow Depth Not available.
UV 0 out of 12
Pollen .10 out of 12
Air Quality Not available.
Flu Activity Not available.
METAR KLGA 222051Z 05008KT 5SM -DZ BR FEW009 OVC016 06/03 A3024 RMK AO2 DZB01 SLP239 P0000 60000 T00560033 55009

More Conditions Fewer Conditions

Pressure 30.24 in
Visibility 5.0 miles
Clouds Few 900 ft
Overcast 1600 ft
Windchill 43 °F
Dew Point 41 °F
Humidity 91%
Rainfall -999.00 in
Snow Depth Not available.
UV 0 out of 12
Pollen .10 out of 12
Air Quality Not available.
Flu Activity Not available.
METAR KLGA 222051Z 05008KT 5SM -DZ BR FEW009 OVC016 06/03 A3024 RMK AO2 DZB01 SLP239 P0000 60000 T00560033 55009

More Conditions Fewer Conditions

10-Day Weather Forecast

Almanac

Astronomy

Dec. 22, 2014 Rise Set
Actual Time
Civil Twilight
Nautical Twilight
Astronomical Twilight
Moon
Length of Visible Light
Length of Day
Tomorrow will be .
, % of the Moon is Illuminated

Today's Extremes

State Highs State Lows

Community

WunderPhotos

Upload Photos

1,779,688 photos uploaded!

WunderBlogs® & News

Nearby

Air Quality

  Air Quality AQ Index Pollutant
Not available.

Snow Depth

Station Depth Elevation

Earthquake Activity

City Distance Mag. Time & Date
Minimum magnitude displayed is 2.5.

Coastal Water Temperatures

Place Temperature

Nearby Weather Stations